CheckWX is a tool to help pilots better visualize weather data.  It is not intended as a substitute for an official pre-flight weather briefing.

09:50:01 UTC

EKOD METAR
Odense Airport
Odense, Denmark
Current

30 mins ago

EKOD 200920Z 25009KT 9999 FEW008 SCT010 BKN170 06/05 Q1016
Observed
Feb-20 @ 09:20 UTC
Wind
  • 250° at 9 KTS
Visibility
10,000+ meters
Flight Rules
VFR
Cloud Levels
  • Few at 800' AGL
  • Scattered at 1,000' AGL
  • Broken at 17,000' AGL
Temperature
C / 43°F
Dewpoint
C / 41°F
Humidity
93%
Altimeter
30" Hg
Pressure
1015.92 hPa
Previous

60 mins ago

EKOD 200850Z 25010KT 9999 FEW008 SCT010 BKN180 06/05 Q1016
Observed
Feb-20 @ 08:50 UTC
Wind
  • 250° at 10 KTS
Visibility
10,000+ meters
Flight Rules
VFR
Cloud Levels
  • Few at 800' AGL
  • Scattered at 1,000' AGL
  • Broken at 18,000' AGL
Temperature
C / 43°F
Dewpoint
C / 41°F
Humidity
93%
Altimeter
30" Hg
Pressure
1015.92 hPa
Previous

2 hours ago

EKOD 200820Z 25011KT 9000 FEW008 BKN010 05/05 Q1016
Observed
Feb-20 @ 08:20 UTC
Wind
  • 250° at 11 KTS
Visibility
8,996 meters
Flight Rules
MVFR
Cloud Levels
  • Few at 800' AGL
  • Broken at 1,000' AGL
Temperature
C / 41°F
Dewpoint
C / 41°F
Humidity
100%
Altimeter
30" Hg
Pressure
1015.92 hPa